Time;durP1;ratioP1;P1;durP2;ratioP2;P2;SDS_P1;SDS_P2;PMS_P1;PMS_P2;Temp;Humidity;BMP_temperature;BMP_pressure;BME280_temperature;BME280_humidity;BME280_pressure;Samples;Min_cycle;Max_cycle;Signal;HPM_P1;HPM_P2
2022/12/28 09:06:19;;;;;;;2.00;1.55;;;16.80;53.20;;;;;;4962222;28;20046;-63
2022/12/28 09:08:51;;;;;;;1.00;0.90;;;16.80;53.40;;;;;;4964467;29;20239;-64
2022/12/28 09:11:17;;;;;;;1.35;1.25;;;16.70;53.40;;;;;;4964862;29;20113;-64
2022/12/28 09:13:43;;;;;;;1.17;1.00;;;16.70;53.40;;;;;;4964739;29;20386;-63
2022/12/28 09:16:14;;;;;;;1.45;1.15;;;16.70;53.50;;;;;;4964277;28;20034;-63
2022/12/28 09:18:41;;;;;;;1.13;1.02;;;16.70;53.50;;;;;;4964513;29;20034;-63
2022/12/28 09:21:10;;;;;;;1.77;1.40;;;16.60;53.50;;;;;;4963260;29;20054;-63
2022/12/28 09:23:36;;;;;;;1.35;1.10;;;16.60;53.60;;;;;;4964540;29;20023;-63
2022/12/28 09:26:07;;;;;;;1.88;1.40;;;16.70;53.70;;;;;;4964144;29;20184;-63
2022/12/28 09:28:33;;;;;;;1.10;1.00;;;16.70;53.40;;;;;;4964416;29;20054;-63
2022/12/28 09:31:05;;;;;;;1.10;1.00;;;16.80;53.20;;;;;;4964312;29;20054;-64
2022/12/28 09:36:17;;;;;;;1.10;1.00;;;17.00;52.80;;;;;;4964203;29;20442;-63
2022/12/28 09:38:47;;;;;;;1.67;1.20;;;17.20;52.50;;;;;;4962821;29;20046;-63
2022/12/28 09:41:26;;;;;;;1.48;1.17;;;17.30;52.30;;;;;;4964161;29;20011;-63
2022/12/28 09:44:16;;;;;;;1.27;1.17;;;17.30;52.10;;;;;;4964118;29;20062;-64
2022/12/28 09:46:50;;;;;;;1.20;1.10;;;17.30;52.20;;;;;;4964102;29;20023;-63
2022/12/28 09:49:19;;;;;;;1.52;1.35;;;17.30;52.30;;;;;;4962851;29;20077;-64
2022/12/28 09:51:53;;;;;;;1.08;0.90;;;17.20;53.00;;;;;;4964103;29;20035;-63
2022/12/28 09:54:19;;;;;;;1.10;1.00;;;17.20;52.50;;;;;;4964066;29;20365;-62
2022/12/28 09:56:47;;;;;;;0.93;0.90;;;17.20;52.60;;;;;;4964004;29;20034;-63
2022/12/28 09:59:20;;;;;;;1.40;1.17;;;17.20;52.70;;;;;;4963847;29;20041;-63
2022/12/28 10:01:57;;;;;;;0.93;0.93;;;17.20;52.70;;;;;;4963874;29;20258;-63
2022/12/28 10:04:24;;;;;;;1.65;1.23;;;17.10;52.80;;;;;;4963814;29;20019;-65
2022/12/28 10:06:50;;;;;;;1.85;1.17;;;17.10;52.90;;;;;;4963483;29;20061;-63
2022/12/28 10:09:24;;;;;;;1.95;1.63;;;17.10;52.90;;;;;;4963675;29;20031;-63
2022/12/28 10:11:50;;;;;;;1.13;1.02;;;17.10;52.80;;;;;;4963638;29;20031;-63
2022/12/28 10:14:29;;;;;;;2.05;1.10;;;17.20;52.90;;;;;;4963513;29;20038;-63
2022/12/28 10:16:55;;;;;;;1.15;1.05;;;17.10;52.90;;;;;;4963583;29;20086;-63
2022/12/28 10:19:25;;;;;;;1.25;1.08;;;17.20;52.60;;;;;;4963391;29;20038;-63
2022/12/28 10:21:55;;;;;;;1.48;1.17;;;17.20;52.60;;;;;;4963396;29;20078;-63
2022/12/28 10:24:23;;;;;;;0.90;0.80;;;17.20;52.70;;;;;;4963404;29;20043;-63
2022/12/28 10:26:48;;;;;;;2.63;1.20;;;17.20;52.80;;;;;;4962930;28;20083;-64
2022/12/28 10:29:19;;;;;;;1.65;1.42;;;17.20;52.80;;;;;;4963095;29;20027;-63
2022/12/28 10:31:57;;;;;;;2.55;1.00;;;17.10;52.80;;;;;;4963321;29;20023;-64
2022/12/28 10:34:24;;;;;;;1.30;1.00;;;17.10;52.90;;;;;;4963342;29;20074;-63
2022/12/28 10:36:51;;;;;;;1.50;1.15;;;17.00;53.10;;;;;;4963159;29;20092;-63
2022/12/28 10:39:24;;;;;;;1.75;1.23;;;17.00;53.80;;;;;;4963088;29;20034;-64
2022/12/28 10:41:51;;;;;;;1.13;1.02;;;16.90;53.30;;;;;;4963158;29;20227;-63
2022/12/28 10:44:28;;;;;;;2.38;1.15;;;16.90;53.40;;;;;;4963014;29;20092;-63
2022/12/28 10:46:56;;;;;;;1.15;1.02;;;16.80;53.60;;;;;;4962991;29;20215;-63
2022/12/28 10:49:23;;;;;;;1.95;1.30;;;16.80;53.60;;;;;;4962915;29;20053;-63
2022/12/28 10:52:18;;;;;;;1.10;1.00;;;16.70;53.70;;;;;;4962945;29;20023;-63
2022/12/28 10:54:45;;;;;;;1.60;1.10;;;16.70;53.60;;;;;;4962962;29;20203;-64
2022/12/28 10:57:28;;;;;;;1.50;1.17;;;16.80;53.50;;;;;;4962885;29;20041;-64
2022/12/28 11:00:21;;;;;;;1.70;1.30;;;16.90;53.20;;;;;;4962839;29;20087;-63
2022/12/28 11:02:47;;;;;;;1.00;0.90;;;17.00;53.00;;;;;;4961702;29;20094;-63
2022/12/28 11:05:23;;;;;;;1.25;1.00;;;17.00;52.90;;;;;;4962702;29;20527;-63
2022/12/28 11:08:03;;;;;;;1.70;1.42;;;17.10;52.90;;;;;;4962638;29;20058;-63
2022/12/28 11:10:31;;;;;;;1.20;1.10;;;17.20;52.70;;;;;;4962743;29;20031;-64
2022/12/28 11:12:59;;;;;;;1.05;0.88;;;17.20;52.50;;;;;;4962725;29;20074;-63
2022/12/28 11:15:32;;;;;;;1.02;0.90;;;17.30;52.50;;;;;;4945491;29;20415;-63
2022/12/28 11:18:19;;;;;;;1.20;1.10;;;17.30;52.50;;;;;;4962537;29;20146;-63
2022/12/28 11:20:52;;;;;;;1.25;1.10;;;17.30;52.70;;;;;;4962245;29;20358;-63
2022/12/28 11:23:22;;;;;;;1.25;0.90;;;17.20;52.70;;;;;;4962579;29;20038;-62
2022/12/28 11:25:48;;;;;;;1.30;1.10;;;17.20;52.80;;;;;;4962467;29;20066;-63
2022/12/28 11:28:17;;;;;;;1.58;1.40;;;17.20;53.00;;;;;;4962528;29;20049;-62
2022/12/28 11:30:44;;;;;;;1.20;1.10;;;17.20;53.00;;;;;;4962378;29;20039;-62
2022/12/28 11:33:46;;;;;;;0.85;0.82;;;17.20;53.00;;;;;;4962384;29;20263;-62
2022/12/28 11:36:24;;;;;;;1.42;1.10;;;17.10;52.90;;;;;;4962262;29;20034;-63
2022/12/28 11:38:52;;;;;;;1.00;0.90;;;17.10;53.00;;;;;;4963678;28;20101;-63
2022/12/28 11:41:24;;;;;;;1.33;1.00;;;17.10;53.10;;;;;;4966390;29;20038;-63
2022/12/28 11:43:51;;;;;;;1.48;1.00;;;17.10;53.10;;;;;;4966432;29;20035;-63
2022/12/28 11:46:20;;;;;;;1.15;1.05;;;17.10;53.10;;;;;;4966235;29;20062;-65
2022/12/28 11:49:22;;;;;;;0.80;0.80;;;17.10;53.00;;;;;;4966227;29;20070;-62
2022/12/28 11:52:19;;;;;;;1.17;1.00;;;17.10;52.90;;;;;;4964914;29;20039;-62
2022/12/28 11:54:58;;;;;;;1.85;1.23;;;17.20;53.00;;;;;;4966151;29;20070;-63
2022/12/28 11:57:37;;;;;;;1.20;1.10;;;17.10;53.00;;;;;;4966091;29;20219;-62
2022/12/28 12:00:23;;;;;;;1.13;1.02;;;17.10;52.90;;;;;;4966100;29;20513;-63
2022/12/28 12:02:56;;;;;;;1.00;0.90;;;17.10;52.90;;;;;;4962062;29;20031;-62
2022/12/28 12:05:37;;;;;;;0.73;0.73;;;17.10;52.90;;;;;;4965974;29;20027;-62
2022/12/28 12:08:14;;;;;;;1.92;1.40;;;17.10;52.90;;;;;;4965789;29;20055;-62
2022/12/28 12:10:47;;;;;;;1.33;0.95;;;17.10;52.90;;;;;;4965844;29;20078;-62
2022/12/28 12:13:25;;;;;;;1.00;0.93;;;17.10;52.90;;;;;;4965817;29;20041;-62
2022/12/28 12:16:02;;;;;;;1.10;0.90;;;17.10;52.90;;;;;;4965786;29;20019;-62
2022/12/28 12:18:32;;;;;;;1.70;1.25;;;17.10;52.90;;;;;;4965463;29;20054;-63
2022/12/28 12:21:03;;;;;;;1.08;0.98;;;17.00;52.90;;;;;;4965796;29;20034;-62
2022/12/28 12:23:41;;;;;;;1.13;0.93;;;17.00;52.90;;;;;;4965708;29;20061;-62
2022/12/28 12:26:21;;;;;;;1.27;1.05;;;17.00;52.80;;;;;;4965564;29;20027;-62
2022/12/28 12:28:51;;;;;;;1.35;1.10;;;17.00;52.70;;;;;;4965509;29;20031;-62
2022/12/28 12:31:34;;;;;;;1.40;1.30;;;17.10;52.70;;;;;;4965586;29;20055;-62
2022/12/28 12:34:11;;;;;;;1.52;1.20;;;17.20;52.60;;;;;;4965543;29;20035;-61
2022/12/28 12:37:12;;;;;;;1.30;1.10;;;17.20;52.50;;;;;;4965387;29;20094;-62
2022/12/28 12:40:12;;;;;;;1.17;1.08;;;17.30;52.40;;;;;;4964021;29;20078;-62
2022/12/28 12:43:02;;;;;;;1.05;0.98;;;17.40;52.30;;;;;;4965278;29;20094;-62
2022/12/28 12:45:36;;;;;;;1.20;1.10;;;17.30;52.20;;;;;;4965309;29;20023;-62
2022/12/28 12:48:29;;;;;;;0.90;0.80;;;17.30;52.30;;;;;;4965196;29;20046;-62
2022/12/28 12:51:22;;;;;;;1.05;0.85;;;17.30;52.30;;;;;;4964433;28;20037;-62
2022/12/28 12:54:31;;;;;;;1.20;1.10;;;17.30;52.30;;;;;;4964966;29;20039;-62
2022/12/28 12:57:14;;;;;;;1.10;1.00;;;17.40;52.40;;;;;;4965053;29;20019;-62
2022/12/28 12:59:49;;;;;;;1.48;1.20;;;17.60;51.80;;;;;;4965031;29;20035;-62
2022/12/28 13:02:36;;;;;;;1.02;0.93;;;18.00;50.90;;;;;;4964871;29;20038;-62
2022/12/28 13:05:04;;;;;;;1.20;1.10;;;18.50;49.70;;;;;;4964918;29;20070;-62
2022/12/28 13:07:30;;;;;;;1.25;1.10;;;18.70;48.90;;;;;;4964698;29;20063;-63
2022/12/28 13:10:03;;;;;;;1.00;0.90;;;18.90;48.60;;;;;;4964910;29;20049;-62
2022/12/28 13:12:29;;;;;;;1.00;0.93;;;18.90;48.30;;;;;;4964750;29;20020;-62
2022/12/28 13:15:02;;;;;;;1.40;1.27;;;18.90;48.40;;;;;;4964814;29;20086;-62
2022/12/28 13:17:29;;;;;;;1.40;1.10;;;18.80;48.70;;;;;;4964749;29;20027;-62
2022/12/28 13:20:08;;;;;;;1.35;1.20;;;18.60;49.20;;;;;;4964587;29;20101;-62
2022/12/28 13:22:34;;;;;;;1.02;1.00;;;18.40;49.50;;;;;;4964502;29;20022;-62
2022/12/28 13:25:00;;;;;;;1.00;0.98;;;18.20;49.90;;;;;;4964651;29;20276;-62
2022/12/28 13:27:38;;;;;;;1.15;1.02;;;18.00;50.50;;;;;;4964581;29;20092;-62
2022/12/28 13:30:06;;;;;;;1.97;1.20;;;18.00;50.70;;;;;;4964468;29;20027;-63
2022/12/28 13:32:35;;;;;;;1.00;0.90;;;18.00;50.60;;;;;;4964676;29;20250;-63
2022/12/28 13:35:01;;;;;;;2.20;1.23;;;18.20;50.10;;;;;;4964362;29;20196;-62
2022/12/28 13:37:27;;;;;;;1.27;1.17;;;18.50;49.60;;;;;;4964340;29;20078;-62
2022/12/28 13:40:10;;;;;;;1.23;0.90;;;18.50;49.40;;;;;;4964359;29;20035;-63
2022/12/28 13:43:31;;;;;;;0.80;0.77;;;18.30;49.60;;;;;;4964133;29;20034;-62
2022/12/28 13:46:06;;;;;;;1.15;1.00;;;18.00;50.40;;;;;;4942735;29;20104;-62
2022/12/28 13:48:35;;;;;;;1.10;1.00;;;18.00;50.50;;;;;;4942774;29;20359;-63
2022/12/28 13:51:02;;;;;;;1.35;1.20;;;18.30;49.80;;;;;;4956768;29;20039;-62
2022/12/28 13:53:30;;;;;;;1.48;1.10;;;18.70;48.80;;;;;;4964033;29;20015;-62
2022/12/28 13:55:59;;;;;;;1.23;1.13;;;18.40;49.40;;;;;;4964070;29;20019;-62
2022/12/28 13:58:28;;;;;;;1.23;1.13;;;17.90;50.50;;;;;;4963912;29;20137;-62
2022/12/28 14:00:57;;;;;;;1.65;1.00;;;18.10;50.20;;;;;;4963895;29;20019;-62
2022/12/28 14:03:24;;;;;;;1.70;0.90;;;18.20;50.40;;;;;;4962834;28;20027;-63
2022/12/28 14:05:58;;;;;;;1.63;1.25;;;18.20;50.00;;;;;;4963807;29;20022;-61
2022/12/28 14:08:26;;;;;;;1.20;1.10;;;18.30;49.50;;;;;;4963547;29;20039;-62
2022/12/28 14:10:53;;;;;;;1.20;1.10;;;18.30;49.50;;;;;;4963679;29;20042;-62
2022/12/28 14:13:20;;;;;;;1.35;1.10;;;18.10;49.80;;;;;;4963756;29;20135;-65
2022/12/28 14:15:47;;;;;;;1.08;0.98;;;18.00;50.20;;;;;;4963645;29;20030;-62
2022/12/28 14:18:17;;;;;;;0.98;0.93;;;18.00;50.20;;;;;;4963485;29;20038;-62
2022/12/28 14:20:54;;;;;;;1.20;1.10;;;17.90;50.30;;;;;;4963568;29;20398;-62
2022/12/28 14:23:24;;;;;;;1.30;1.17;;;17.90;50.50;;;;;;4963514;29;20035;-65
2022/12/28 14:25:51;;;;;;;1.02;0.93;;;17.80;50.80;;;;;;4963375;29;20023;-62
2022/12/28 14:28:30;;;;;;;1.02;0.77;;;17.60;51.20;;;;;;4963403;29;20228;-63
2022/12/28 14:30:56;;;;;;;;;;;17.40;51.70;;;;;;4963860;29;20031;-62
2022/12/28 14:33:27;;;;;;;0.82;0.82;;;17.30;52.30;;;;;;4963371;29;19910;-63
2022/12/28 14:36:01;;;;;;;1.20;0.90;;;17.20;52.30;;;;;;4963343;29;20050;-62
2022/12/28 14:38:33;;;;;;;0.80;0.80;;;17.30;52.40;;;;;;4963223;29;20055;-64
2022/12/28 14:41:00;;;;;;;1.60;1.13;;;17.30;52.40;;;;;;4963225;29;20019;-62
2022/12/28 14:43:29;;;;;;;1.00;0.95;;;17.30;52.40;;;;;;4962973;29;20196;-64
2022/12/28 14:45:56;;;;;;;0.82;0.82;;;17.30;52.30;;;;;;4963312;29;20083;-63
2022/12/28 14:48:34;;;;;;;1.70;1.17;;;17.30;52.20;;;;;;4962988;29;20041;-63
2022/12/28 14:51:25;;;;;;;0.90;0.90;;;17.30;52.20;;;;;;4962894;29;20026;-64
2022/12/28 14:54:27;;;;;;;1.80;0.90;;;17.40;52.10;;;;;;4962928;29;20031;-63
2022/12/28 14:57:13;;;;;;;1.15;1.00;;;17.50;52.10;;;;;;4941417;29;20035;-62
2022/12/28 14:59:44;;;;;;;3.15;0.98;;;17.40;52.20;;;;;;4961750;29;20043;-62
2022/12/28 15:02:31;;;;;;;1.27;0.95;;;17.30;52.40;;;;;;4962797;29;20019;-62
2022/12/28 15:04:57;;;;;;;1.05;0.95;;;17.30;52.30;;;;;;4962876;29;20132;-62
2022/12/28 15:07:23;;;;;;;1.13;0.98;;;17.30;52.50;;;;;;4962622;29;20066;-62
2022/12/28 15:09:49;;;;;;;0.90;0.90;;;17.20;52.50;;;;;;4962724;29;20319;-63
2022/12/28 15:12:19;;;;;;;1.25;0.93;;;17.20;52.80;;;;;;4962703;29;20019;-62
2022/12/28 15:14:45;;;;;;;1.30;1.20;;;17.10;52.80;;;;;;4962440;28;20030;-63
2022/12/28 15:17:11;;;;;;;1.85;1.20;;;17.00;52.90;;;;;;4962677;29;20053;-63
2022/12/28 15:19:38;;;;;;;1.02;0.80;;;17.00;52.90;;;;;;4962657;29;20031;-63
2022/12/28 15:22:04;;;;;;;1.40;1.30;;;17.10;52.90;;;;;;4962552;29;20031;-62
2022/12/28 15:24:31;;;;;;;1.15;0.98;;;17.10;52.80;;;;;;4962767;29;20019;-63
2022/12/28 15:26:57;;;;;;;1.00;0.90;;;17.00;52.80;;;;;;4962511;29;20031;-62
2022/12/28 15:29:22;;;;;;;0.95;0.90;;;16.90;53.00;;;;;;4962575;29;20073;-62
2022/12/28 15:31:48;;;;;;;0.88;0.88;;;16.90;53.20;;;;;;4962614;29;20062;-62
2022/12/28 15:34:14;;;;;;;1.00;0.77;;;16.80;53.30;;;;;;4962506;29;20417;-62
2022/12/28 15:36:44;;;;;;;0.80;0.80;;;16.80;53.40;;;;;;4962483;29;20031;-63
2022/12/28 15:39:12;;;;;;;1.25;1.13;;;16.80;53.50;;;;;;4962353;29;20077;-63
2022/12/28 15:41:47;;;;;;;0.98;0.90;;;16.80;53.40;;;;;;4962419;29;20557;-63
2022/12/28 15:44:20;;;;;;;0.70;0.70;;;16.80;53.40;;;;;;4962433;29;20035;-63
2022/12/28 15:46:48;;;;;;;1.60;1.05;;;16.90;53.30;;;;;;4962424;29;20023;-63
2022/12/28 15:49:16;;;;;;;0.88;0.80;;;16.90;53.20;;;;;;4962374;29;20082;-62
2022/12/28 15:51:43;;;;;;;1.13;0.95;;;17.00;53.00;;;;;;4962323;29;20578;-62
2022/12/28 15:54:09;;;;;;;0.80;0.80;;;17.10;53.00;;;;;;4962232;29;20078;-64
2022/12/28 15:56:37;;;;;;;1.30;1.20;;;17.10;52.80;;;;;;4962343;29;20522;-62
2022/12/28 15:59:10;;;;;;;0.77;0.77;;;17.20;52.70;;;;;;4962190;29;20035;-62
2022/12/28 16:01:41;;;;;;;1.05;0.95;;;17.30;52.70;;;;;;4944916;29;20020;-62
2022/12/28 16:04:06;;;;;;;1.00;0.90;;;17.20;52.70;;;;;;4962259;29;20027;-62
2022/12/28 16:06:33;;;;;;;0.80;0.80;;;17.20;52.70;;;;;;4962088;29;20378;-62
2022/12/28 16:09:00;;;;;;;1.15;1.00;;;17.20;52.80;;;;;;4962147;29;20035;-65
2022/12/28 16:11:32;;;;;;;0.98;0.90;;;17.10;52.90;;;;;;4962175;29;20035;-63
2022/12/28 16:14:04;;;;;;;1.10;1.00;;;17.20;53.00;;;;;;4962085;29;20034;-63
2022/12/28 16:16:36;;;;;;;1.15;1.00;;;17.10;53.00;;;;;;4962026;29;20027;-62
2022/12/28 16:19:02;;;;;;;1.30;1.00;;;17.10;53.10;;;;;;4962072;29;20086;-64
2022/12/28 16:21:29;;;;;;;1.30;1.10;;;17.00;53.10;;;;;;4962084;29;20027;-64
2022/12/28 16:23:57;;;;;;;1.23;1.13;;;17.00;53.30;;;;;;4962053;29;20035;-63
2022/12/28 16:26:23;;;;;;;1.23;0.90;;;17.00;53.40;;;;;;4963964;28;20020;-62
2022/12/28 16:28:49;;;;;;;1.00;0.90;;;16.90;53.30;;;;;;4965618;29;20128;-63
2022/12/28 16:31:25;;;;;;;0.85;0.82;;;16.90;53.40;;;;;;4965418;29;20038;-62
2022/12/28 16:33:53;;;;;;;1.05;0.90;;;16.80;53.50;;;;;;4965535;29;20058;-63
2022/12/28 16:36:20;;;;;;;1.25;1.10;;;16.90;53.60;;;;;;4965519;29;20039;-62
2022/12/28 16:38:46;;;;;;;0.90;0.90;;;16.80;53.50;;;;;;4948074;29;20255;-62
2022/12/28 16:41:12;;;;;;;1.08;0.98;;;16.70;53.60;;;;;;4965387;29;20063;-62
2022/12/28 16:43:37;;;;;;;1.13;1.02;;;16.70;53.70;;;;;;4965282;29;20019;-63
2022/12/28 16:46:07;;;;;;;1.30;1.20;;;16.70;53.70;;;;;;4965307;29;20044;-64
2022/12/28 16:48:34;;;;;;;0.88;0.88;;;16.70;53.70;;;;;;4965259;29;20031;-64
2022/12/28 16:51:00;;;;;;;0.90;0.80;;;16.70;53.60;;;;;;4965262;29;20027;-63
2022/12/28 16:53:28;;;;;;;1.40;0.90;;;16.70;53.50;;;;;;4965139;29;20031;-63
2022/12/28 16:55:58;;;;;;;1.45;1.30;;;16.80;53.40;;;;;;4965190;29;20046;-64
2022/12/28 16:58:23;;;;;;;1.00;0.80;;;16.90;53.30;;;;;;4964949;29;20034;-63
2022/12/28 17:00:49;;;;;;;1.50;1.10;;;16.90;53.10;;;;;;4964855;29;20027;-63
2022/12/28 17:03:15;;;;;;;1.08;0.90;;;17.00;53.50;;;;;;4964976;29;20042;-63
2022/12/28 17:05:41;;;;;;;1.35;0.90;;;17.10;52.80;;;;;;4964865;29;20351;-63
2022/12/28 17:08:07;;;;;;;1.20;0.98;;;17.20;52.60;;;;;;4964804;29;20170;-63
2022/12/28 17:10:33;;;;;;;1.10;1.00;;;17.30;52.50;;;;;;4964926;29;20022;-64
2022/12/28 17:12:58;;;;;;;0.93;0.90;;;17.30;52.30;;;;;;4964867;29;20051;-64
2022/12/28 17:15:24;;;;;;;1.00;0.85;;;17.20;52.40;;;;;;4964771;29;20046;-63
2022/12/28 17:17:50;;;;;;;1.08;0.85;;;17.20;52.60;;;;;;4964695;29;20031;-64
2022/12/28 17:20:16;;;;;;;1.45;1.13;;;17.20;52.80;;;;;;4964758;29;20038;-63
2022/12/28 17:22:42;;;;;;;1.15;0.88;;;17.10;52.90;;;;;;4964686;29;20038;-63
2022/12/28 17:25:08;;;;;;;1.38;1.10;;;17.00;53.00;;;;;;4964462;29;20236;-63
2022/12/28 17:27:34;;;;;;;1.27;0.80;;;17.00;53.10;;;;;;4964604;29;20023;-63
2022/12/28 17:30:00;;;;;;;1.42;0.98;;;16.90;53.20;;;;;;4964518;29;20097;-63
2022/12/28 17:32:26;;;;;;;1.23;0.90;;;16.90;53.30;;;;;;4964412;29;20031;-63
2022/12/28 17:34:52;;;;;;;1.20;1.05;;;16.80;53.40;;;;;;4964481;29;20027;-63
2022/12/28 17:37:18;;;;;;;1.13;0.90;;;16.80;53.50;;;;;;4964048;28;20230;-63
2022/12/28 17:39:44;;;;;;;1.30;0.90;;;16.80;53.50;;;;;;4964249;29;20027;-64
2022/12/28 17:42:10;;;;;;;1.10;0.98;;;16.70;53.60;;;;;;4964302;29;20342;-63
2022/12/28 17:44:36;;;;;;;1.40;0.90;;;16.70;53.60;;;;;;4964263;29;20034;-63
2022/12/28 17:47:02;;;;;;;1.48;1.02;;;16.70;53.70;;;;;;4964187;29;20593;-63
2022/12/28 17:49:28;;;;;;;1.30;1.13;;;16.70;53.80;;;;;;4964129;29;20035;-63
2022/12/28 17:51:54;;;;;;;0.80;0.80;;;16.60;53.70;;;;;;4964015;29;20311;-63
2022/12/28 17:54:19;;;;;;;1.75;1.05;;;16.60;53.80;;;;;;4964089;29;20110;-63
2022/12/28 17:56:45;;;;;;;1.10;1.00;;;16.60;53.80;;;;;;4963971;29;20046;-63
2022/12/28 17:59:13;;;;;;;1.35;1.10;;;16.60;53.70;;;;;;4963895;29;20086;-62
2022/12/28 18:01:39;;;;;;;0.80;0.80;;;16.70;53.60;;;;;;4962870;28;20382;-63
2022/12/28 18:04:05;;;;;;;1.27;1.17;;;16.70;53.50;;;;;;4963976;29;20032;-64
2022/12/28 18:06:31;;;;;;;1.95;1.13;;;16.80;53.40;;;;;;4963706;29;20023;-64
2022/12/28 18:08:57;;;;;;;2.20;1.30;;;16.90;53.30;;;;;;4963986;29;20106;-63
2022/12/28 18:11:22;;;;;;;1.15;1.00;;;16.90;53.10;;;;;;4963709;29;20090;-64
2022/12/28 18:13:48;;;;;;;0.90;0.57;;;17.00;52.90;;;;;;4963722;29;20038;-64
2022/12/28 18:16:16;;;;;;;0.80;0.80;;;17.00;52.90;;;;;;4963648;29;20027;-63
2022/12/28 18:18:42;;;;;;;1.00;0.90;;;17.00;52.80;;;;;;4963456;29;20099;-63
2022/12/28 18:21:13;;;;;;;1.30;0.90;;;17.10;52.70;;;;;;4963444;29;20272;-63
2022/12/28 18:23:39;;;;;;;1.27;1.10;;;17.10;52.60;;;;;;4963609;29;20094;-63
2022/12/28 18:26:08;;;;;;;1.10;1.00;;;17.10;52.60;;;;;;4963446;29;20311;-63
2022/12/28 18:28:35;;;;;;;1.50;0.90;;;17.10;52.60;;;;;;4963353;29;20031;-63
2022/12/28 18:31:01;;;;;;;1.15;1.05;;;17.00;52.80;;;;;;4963298;29;20023;-62
2022/12/28 18:33:28;;;;;;;1.50;1.20;;;16.90;52.90;;;;;;4963377;29;20034;-62
2022/12/28 18:35:54;;;;;;;0.85;0.85;;;16.90;53.00;;;;;;4963208;29;20380;-63
2022/12/28 18:38:19;;;;;;;1.50;1.00;;;16.80;53.20;;;;;;4963216;29;20023;-62
2022/12/28 18:40:53;;;;;;;0.80;0.80;;;16.80;53.40;;;;;;4963277;29;20043;-63
2022/12/28 18:43:19;;;;;;;0.80;0.80;;;16.70;53.50;;;;;;4963323;29;20038;-62
2022/12/28 18:45:58;;;;;;;1.23;1.00;;;16.70;53.60;;;;;;4963100;29;20338;-63
2022/12/28 18:48:25;;;;;;;1.20;1.00;;;16.70;53.50;;;;;;4961258;28;20035;-62
2022/12/28 18:51:04;;;;;;;1.38;0.88;;;16.70;53.20;;;;;;4961810;29;20027;-62
2022/12/28 18:53:30;;;;;;;1.75;1.23;;;16.70;53.40;;;;;;4962974;29;20027;-62
2022/12/28 18:55:58;;;;;;;1.25;0.93;;;16.70;54.10;;;;;;4963065;29;20023;-65
2022/12/28 18:58:28;;;;;;;1.55;0.88;;;16.70;53.50;;;;;;4962896;29;20031;-63
2022/12/28 19:01:01;;;;;;;1.20;1.10;;;16.70;53.50;;;;;;4962964;29;20523;-63
2022/12/28 19:03:27;;;;;;;1.70;1.00;;;16.70;53.50;;;;;;4962927;29;20043;-63
2022/12/28 19:05:58;;;;;;;0.90;0.80;;;16.70;53.50;;;;;;4962888;29;20211;-63
2022/12/28 19:08:24;;;;;;;1.10;1.00;;;16.70;53.60;;;;;;4962633;29;20067;-62
2022/12/28 19:10:50;;;;;;;1.00;0.88;;;16.60;53.60;;;;;;4962787;29;20038;-62
2022/12/28 19:13:15;;;;;;;1.83;0.98;;;16.60;53.60;;;;;;4962576;29;20023;-63
2022/12/28 19:15:41;;;;;;;0.80;0.80;;;16.60;53.60;;;;;;4962708;29;20042;-63
2022/12/28 19:18:07;;;;;;;1.10;1.00;;;16.60;53.60;;;;;;4962522;29;20086;-63
2022/12/28 19:20:33;;;;;;;1.27;0.98;;;16.70;53.50;;;;;;4962755;29;20031;-62
2022/12/28 19:22:58;;;;;;;1.20;1.02;;;16.80;53.40;;;;;;4962672;29;20082;-62
2022/12/28 19:25:24;;;;;;;1.63;1.10;;;16.80;53.10;;;;;;4962676;29;20475;-63
2022/12/28 19:27:50;;;;;;;1.65;1.02;;;16.90;53.00;;;;;;4962643;29;20034;-62
2022/12/28 19:30:16;;;;;;;1.30;1.00;;;16.90;52.90;;;;;;4962413;29;20083;-62
2022/12/28 19:32:41;;;;;;;1.10;0.93;;;17.00;52.80;;;;;;4961283;29;20027;-64
2022/12/28 19:35:07;;;;;;;1.23;0.93;;;17.00;52.70;;;;;;4962475;29;20031;-62
2022/12/28 19:37:33;;;;;;;1.23;0.98;;;17.10;52.70;;;;;;4962539;29;20031;-62
2022/12/28 19:39:59;;;;;;;1.15;1.00;;;17.10;52.70;;;;;;4962459;29;20034;-63
2022/12/28 19:42:25;;;;;;;1.27;1.02;;;17.10;52.50;;;;;;4962463;29;20083;-63
2022/12/28 19:44:51;;;;;;;1.55;1.20;;;17.10;52.50;;;;;;4962336;29;20086;-63
2022/12/28 19:47:17;;;;;;;1.30;1.02;;;17.10;52.60;;;;;;4962462;29;20338;-62
2022/12/28 19:49:42;;;;;;;0.80;0.80;;;17.00;52.80;;;;;;4962466;29;20020;-62
2022/12/28 19:52:08;;;;;;;1.40;1.05;;;17.00;53.00;;;;;;4962466;29;20086;-63
2022/12/28 19:54:34;;;;;;;1.40;1.00;;;16.90;53.10;;;;;;4962314;29;20038;-62
2022/12/28 19:56:59;;;;;;;2.00;1.05;;;16.90;53.30;;;;;;4962387;29;20091;-63
2022/12/28 19:59:25;;;;;;;1.20;1.10;;;16.80;53.30;;;;;;4962845;28;20027;-63
2022/12/28 20:01:51;;;;;;;1.40;1.10;;;16.70;53.40;;;;;;4966200;29;20088;-62
2022/12/28 20:04:17;;;;;;;1.10;0.77;;;16.70;53.60;;;;;;4966076;29;20086;-63
2022/12/28 20:06:43;;;;;;;1.42;1.10;;;16.60;53.70;;;;;;4965980;29;20026;-63
2022/12/28 20:09:10;;;;;;;2.03;1.25;;;16.60;53.80;;;;;;4966073;29;20451;-62
2022/12/28 20:11:37;;;;;;;1.02;0.75;;;16.60;53.80;;;;;;4966089;29;20065;-63
2022/12/28 20:14:03;;;;;;;1.15;1.00;;;16.60;53.90;;;;;;4965918;29;20146;-63
2022/12/28 20:16:31;;;;;;;1.35;1.20;;;16.60;53.70;;;;;;4965850;29;20435;-62
2022/12/28 20:19:00;;;;;;;1.02;0.93;;;16.60;53.70;;;;;;4965854;29;20200;-63
2022/12/28 20:21:26;;;;;;;1.52;1.05;;;16.60;53.60;;;;;;4965665;29;20086;-62
2022/12/28 20:23:53;;;;;;;1.50;1.00;;;16.60;53.60;;;;;;4965756;29;20365;-63
2022/12/28 20:26:20;;;;;;;1.05;1.00;;;16.60;53.60;;;;;;4964545;29;20031;-62
2022/12/28 20:28:49;;;;;;;1.05;1.00;;;16.60;53.60;;;;;;4965706;29;20330;-63
2022/12/28 20:31:15;;;;;;;1.02;0.98;;;16.60;53.60;;;;;;4965694;29;20253;-62
2022/12/28 20:33:41;;;;;;;1.08;0.98;;;16.60;53.60;;;;;;4965662;29;20059;-63
2022/12/28 20:36:14;;;;;;;1.00;0.95;;;16.60;53.70;;;;;;4965576;29;20031;-63
2022/12/28 20:38:40;;;;;;;1.13;0.77;;;16.60;53.60;;;;;;4965584;29;20093;-63
2022/12/28 20:43:58;;;;;;;1.00;0.90;;;16.70;53.30;;;;;;4935524;29;20035;-63
2022/12/28 20:46:23;;;;;;;1.17;1.08;;;16.80;53.20;;;;;;4965502;29;20027;-62
2022/12/28 20:48:49;;;;;;;1.10;0.95;;;16.90;53.00;;;;;;4965432;29;20027;-62
2022/12/28 20:51:15;;;;;;;1.27;1.10;;;17.00;52.90;;;;;;4965411;29;20046;-62
2022/12/28 20:53:41;;;;;;;1.02;0.88;;;17.00;52.70;;;;;;4965319;29;20093;-62
2022/12/28 20:56:08;;;;;;;1.23;1.13;;;17.00;52.60;;;;;;4965314;29;20042;-63
2022/12/28 20:58:35;;;;;;;1.00;0.90;;;17.00;52.60;;;;;;4965066;29;20019;-63
2022/12/28 21:01:11;;;;;;;1.10;1.00;;;17.10;52.60;;;;;;4965187;29;20031;-63
2022/12/28 21:03:37;;;;;;;1.13;1.00;;;17.10;52.50;;;;;;4965065;29;20034;-63
2022/12/28 21:06:04;;;;;;;1.00;0.90;;;17.20;52.60;;;;;;4965080;29;20090;-64
2022/12/28 21:08:30;;;;;;;1.23;1.10;;;17.10;52.50;;;;;;4964782;29;20086;-64
2022/12/28 21:10:56;;;;;;;1.40;0.85;;;17.00;53.30;;;;;;4964674;28;20335;-63
2022/12/28 21:13:23;;;;;;;1.02;0.93;;;17.00;52.80;;;;;;4964675;29;20035;-63
2022/12/28 21:15:49;;;;;;;1.17;0.98;;;16.90;53.00;;;;;;4964961;29;20030;-63
2022/12/28 21:18:14;;;;;;;1.35;1.08;;;16.80;53.10;;;;;;4964830;29;20027;-62
2022/12/28 21:20:47;;;;;;;1.98;0.82;;;16.80;53.40;;;;;;4964822;29;20023;-62
2022/12/28 21:23:14;;;;;;;1.23;0.90;;;16.70;53.50;;;;;;4964830;29;20026;-62
2022/12/28 21:25:40;;;;;;;1.60;1.23;;;16.60;53.60;;;;;;4964507;29;20110;-62
2022/12/28 21:28:06;;;;;;;0.95;0.95;;;16.60;53.70;;;;;;4964804;29;20038;-63
2022/12/28 21:30:32;;;;;;;1.50;1.05;;;16.60;53.80;;;;;;4964671;29;20034;-63
2022/12/28 21:32:57;;;;;;;1.08;0.90;;;16.50;53.90;;;;;;4964644;29;20031;-63
2022/12/28 21:35:23;;;;;;;1.30;1.20;;;16.50;53.90;;;;;;4964600;29;20077;-63
2022/12/28 21:37:49;;;;;;;1.10;0.80;;;16.50;53.80;;;;;;4964458;29;20319;-62
2022/12/28 21:40:15;;;;;;;1.65;1.15;;;16.60;53.80;;;;;;4964450;29;20031;-63
2022/12/28 21:42:41;;;;;;;1.70;1.10;;;16.60;53.70;;;;;;4964424;29;20034;-63
2022/12/28 21:45:08;;;;;;;1.42;1.23;;;16.60;53.60;;;;;;4964458;29;20051;-63
2022/12/28 21:47:34;;;;;;;1.25;1.10;;;16.60;53.60;;;;;;4964365;29;20033;-63
2022/12/28 21:50:01;;;;;;;1.52;0.90;;;16.60;53.60;;;;;;4964336;29;20070;-63
2022/12/28 21:52:35;;;;;;;1.35;0.90;;;16.60;53.60;;;;;;4964293;29;20038;-64
2022/12/28 21:55:40;;;;;;;1.80;1.30;;;16.60;53.60;;;;;;4964287;29;20034;-63
2022/12/28 21:57:51;;;;;;;1.13;1.02;;;16.60;53.50;;;;;;4963870;29;20090;-62
2022/12/28 22:13:51;;;;;;;1.10;1.00;;;17.00;52.80;;;;;;4928292;29;20044;-62
2022/12/28 22:16:17;;;;;;;1.60;1.05;;;17.00;52.70;;;;;;4963850;29;20030;-62
2022/12/28 22:18:43;;;;;;;1.10;1.00;;;17.00;52.60;;;;;;4963822;29;20031;-62
2022/12/28 22:21:09;;;;;;;1.33;0.95;;;17.00;52.60;;;;;;4963774;29;20326;-63
2022/12/28 22:23:34;;;;;;;1.33;1.02;;;17.00;52.60;;;;;;4962835;28;20082;-65
2022/12/28 22:26:00;;;;;;;2.90;1.13;;;17.00;52.50;;;;;;4963912;29;20015;-62
2022/12/28 22:28:26;;;;;;;1.27;1.00;;;17.00;52.70;;;;;;4963738;29;20066;-63